createdAt,value
2019-04-16T00:02:52.235Z,60.68
2019-04-16T00:07:12.165Z,61.57
2019-04-16T00:11:24.707Z,61.75
2019-04-16T00:15:26.617Z,62.11
2019-04-16T00:19:28.518Z,62.23
2019-04-16T00:23:33.158Z,62.12
2019-04-16T00:27:35.083Z,62.72
2019-04-16T00:31:37.783Z,62.95
2019-04-16T00:35:39.751Z,62.96
2019-04-16T00:39:41.655Z,62.84
2019-04-16T00:43:44.213Z,62.50
2019-04-16T00:47:47.951Z,62.52
2019-04-16T00:51:49.940Z,63.15
2019-04-16T00:55:51.853Z,63.51
2019-04-16T00:59:56.351Z,63.58
2019-04-16T01:03:57.455Z,63.93
2019-04-16T01:07:59.363Z,64.03
2019-04-16T01:12:01.612Z,63.92
2019-04-16T01:16:04.175Z,64.39
2019-04-16T01:20:11.572Z,64.40
2019-04-16T01:24:12.128Z,63.68
2019-04-16T01:28:24.595Z,64.73
2019-04-16T01:32:28.182Z,64.79
2019-04-16T01:36:36.120Z,65.17
2019-04-16T01:40:43.651Z,65.86
2019-04-16T01:44:45.571Z,65.48
2019-04-16T01:49:09.808Z,65.64
2019-04-16T01:53:21.010Z,65.74
2019-04-16T01:57:23.730Z,65.58
2019-04-16T02:01:25.650Z,66.22
2019-04-16T02:05:27.543Z,66.64
2019-04-16T02:09:34.169Z,66.56
2019-04-16T02:13:33.373Z,66.74
2019-04-16T02:17:35.272Z,66.59
2019-04-16T02:21:39.003Z,66.79
2019-04-16T02:25:41.865Z,66.77
2019-04-16T02:29:43.910Z,66.99
2019-04-16T02:33:45.866Z,67.27
2019-04-16T02:37:47.893Z,67.37
2019-04-16T02:41:57.077Z,67.38
2019-04-16T02:45:58.440Z,67.72
2019-04-16T02:49:58.113Z,67.86
2019-04-16T02:54:13.925Z,68.22
2019-04-16T02:58:33.896Z,67.97
2019-04-16T03:02:32.957Z,67.96
2019-04-16T03:06:34.999Z,68.61
2019-04-16T03:10:36.900Z,68.59
2019-04-16T03:14:38.874Z,69.00
2019-04-16T03:18:46.907Z,69.04
2019-04-16T03:22:46.093Z,68.71
2019-04-16T03:26:50.525Z,68.54
2019-04-16T03:30:51.606Z,68.96
2019-04-16T03:34:54.167Z,69.11
2019-04-16T03:38:56.105Z,69.21
2019-04-16T03:42:59.331Z,69.28
2019-04-16T03:47:01.675Z,69.43
2019-04-16T03:51:04.420Z,69.40
2019-04-16T03:55:06.968Z,69.75
2019-04-16T03:59:11.858Z,69.91
2019-04-16T04:03:12.747Z,69.57
2019-04-16T04:07:14.682Z,69.65
2019-04-16T04:11:16.576Z,69.53
2019-04-16T04:15:18.506Z,69.65
2019-04-16T04:19:20.473Z,70.27
2019-04-16T04:23:22.422Z,69.61
2019-04-16T04:27:24.339Z,69.55
2019-04-16T04:31:26.275Z,70.07
2019-04-16T04:35:28.214Z,70.30
2019-04-16T04:39:30.151Z,70.39
2019-04-16T04:43:32.725Z,70.73
2019-04-16T04:47:34.752Z,70.71
2019-04-16T04:51:42.662Z,70.75
2019-04-16T04:55:40.283Z,70.90
2019-04-16T04:59:42.205Z,71.09
2019-04-16T05:04:02.227Z,70.93
2019-04-16T05:08:04.607Z,71.47
2019-04-16T05:12:08.287Z,71.48
2019-04-16T05:16:10.477Z,71.48
2019-04-16T05:20:15.375Z,71.57
2019-04-16T05:24:16.109Z,71.65
2019-04-16T05:28:18.046Z,71.69
2019-04-16T05:32:20.913Z,71.95
2019-04-16T05:36:22.844Z,71.82
2019-04-16T05:40:27.621Z,71.75
2019-04-16T05:44:33.051Z,71.46
2019-04-16T05:48:32.102Z,71.96
2019-04-16T05:52:52.962Z,71.57
2019-04-16T06:01:10.457Z,70.33
2019-04-16T06:05:13.491Z,70.74
2019-04-16T06:09:15.677Z,70.55
2019-04-16T06:13:26.604Z,70.24
2019-04-16T06:17:48.439Z,68.27
2019-04-16T06:22:03.834Z,68.08
2019-04-16T06:26:07.638Z,66.25
2019-04-16T06:30:17.379Z,65.33
2019-04-16T06:34:32.942Z,62.92
2019-04-16T06:38:51.187Z,60.86
2019-04-16T06:43:02.764Z,59.08
2019-04-16T06:47:10.518Z,59.47
2019-04-16T06:51:17.128Z,57.04
2019-04-16T06:55:36.011Z,56.73
2019-04-16T06:59:43.735Z,57.27
2019-04-16T07:03:47.317Z,56.55
2019-04-16T07:07:50.864Z,56.39
2019-04-16T07:11:55.045Z,55.82
2019-04-16T07:15:57.775Z,55.47
2019-04-16T07:19:59.882Z,54.06
2019-04-16T07:24:01.877Z,54.83
2019-04-16T07:28:05.448Z,52.78
2019-04-16T07:32:17.997Z,53.97
2019-04-16T07:36:30.256Z,52.64
2019-04-16T07:40:50.076Z,52.62
2019-04-16T07:44:56.331Z,51.35
2019-04-16T07:49:16.011Z,52.03
2019-04-16T07:53:22.455Z,51.36
2019-04-16T07:57:24.379Z,50.50
2019-04-16T08:01:26.285Z,51.28
2019-04-16T08:05:28.310Z,49.52
2019-04-16T08:09:33.503Z,48.89
2019-04-16T08:13:35.517Z,48.78
2019-04-16T08:17:37.452Z,49.57
2019-04-16T08:21:40.692Z,49.38
2019-04-16T08:25:44.267Z,48.07
2019-04-16T08:29:46.185Z,47.02
2019-04-16T08:33:48.098Z,46.18
2019-04-16T08:37:50.011Z,46.04
2019-04-16T08:41:53.008Z,45.64
2019-04-16T08:45:55.174Z,44.20
2019-04-16T08:49:57.107Z,43.56
2019-04-16T08:53:59.047Z,41.48
2019-04-16T08:58:05.898Z,40.87
2019-04-16T09:02:05.194Z,40.77
2019-04-16T09:06:07.191Z,39.23
2019-04-16T09:10:18.084Z,39.34
2019-04-16T09:14:21.042Z,39.37
2019-04-16T09:18:22.088Z,37.80
2019-04-16T09:22:24.097Z,38.07
2019-04-16T09:26:30.399Z,36.79
2019-04-16T09:30:40.880Z,37.24
2019-04-16T09:34:51.733Z,36.97
2019-04-16T09:38:55.308Z,36.92
2019-04-16T09:42:57.593Z,35.58
2019-04-16T09:47:00.586Z,36.20
2019-04-16T09:51:02.703Z,35.68
2019-04-16T09:55:05.830Z,35.32
2019-04-16T09:59:11.052Z,34.12
2019-04-16T10:03:14.776Z,34.06
2019-04-16T10:07:16.733Z,34.20
2019-04-16T10:11:19.454Z,33.03
2019-04-16T10:15:21.695Z,32.96
2019-04-16T10:19:23.831Z,31.95
2019-04-16T10:23:27.399Z,30.76
2019-04-16T10:27:32.496Z,30.77
2019-04-16T10:31:34.511Z,30.32
2019-04-16T10:35:36.484Z,28.36
2019-04-16T10:39:42.699Z,27.88
2019-04-16T10:43:46.814Z,28.89
2019-04-16T10:47:50.689Z,27.20
2019-04-16T10:52:09.360Z,28.29
2019-04-16T10:56:28.591Z,27.82
2019-04-16T11:00:34.967Z,27.17
2019-04-16T11:04:54.407Z,26.91
2019-04-16T11:08:56.328Z,26.79
2019-04-16T11:12:58.255Z,27.29
2019-04-16T11:17:00.201Z,27.03
2019-04-16T11:21:02.416Z,27.60
2019-04-16T11:25:05.872Z,27.10
2019-04-16T11:29:07.763Z,27.52
2019-04-16T11:33:09.748Z,23.50
2019-04-16T11:37:11.794Z,25.19
2019-04-16T11:41:13.759Z,25.63
2019-04-16T11:45:16.285Z,26.15
2019-04-16T11:49:18.276Z,24.33
2019-04-16T11:53:30.118Z,23.36
2019-04-16T11:57:33.993Z,23.67
2019-04-16T12:01:52.314Z,23.34
2019-04-16T12:06:27.166Z,24.18
2019-04-16T12:10:16.538Z,23.84
2019-04-16T12:14:42.010Z,24.85
2019-04-16T12:18:53.548Z,25.88
2019-04-16T12:23:12.261Z,24.30
2019-04-16T12:27:14.156Z,22.15
2019-04-16T12:31:17.750Z,22.66
2019-04-16T12:35:21.285Z,23.68
2019-04-16T12:39:24.887Z,21.70
2019-04-16T12:43:26.658Z,22.51
2019-04-16T12:47:36.513Z,22.71
2019-04-16T12:51:55.141Z,21.74
2019-04-16T12:56:05.763Z,22.75
2019-04-16T13:00:07.049Z,22.35
2019-04-16T13:04:13.457Z,20.97
2019-04-16T13:08:15.165Z,22.46
2019-04-16T13:12:32.857Z,21.89
2019-04-16T13:16:54.480Z,22.04
2019-04-16T13:21:05.493Z,22.90
2019-04-16T13:25:22.250Z,22.15
2019-04-16T13:29:28.974Z,21.44
2019-04-16T13:33:27.861Z,21.45
2019-04-16T13:37:33.626Z,21.75
2019-04-16T13:41:33.406Z,21.90
2019-04-16T13:45:36.702Z,21.89
2019-04-16T13:49:42.936Z,22.06
2019-04-16T13:53:52.495Z,22.19
2019-04-16T13:58:02.206Z,21.15
2019-04-16T14:02:17.315Z,22.17
2019-04-16T14:06:18.295Z,20.92
2019-04-16T14:10:20.204Z,20.36
2019-04-16T14:14:23.806Z,20.54
2019-04-16T14:18:25.805Z,20.42
2019-04-16T14:22:27.726Z,20.64
2019-04-16T14:26:29.647Z,20.61
2019-04-16T14:30:33.241Z,19.40
2019-04-16T14:34:37.859Z,20.10
2019-04-16T14:38:41.418Z,18.94
2019-04-16T14:42:43.325Z,19.93
2019-04-16T14:46:45.254Z,20.45
2019-04-16T14:50:47.175Z,20.60
2019-04-16T14:54:50.740Z,20.90
2019-04-16T14:59:06.539Z,21.28
2019-04-16T15:03:26.311Z,21.32
2019-04-16T15:07:29.883Z,20.61
2019-04-16T15:11:51.954Z,20.45
2019-04-16T15:16:08.239Z,19.83
2019-04-16T15:20:16.593Z,20.55
2019-04-16T15:24:20.215Z,20.39
2019-04-16T15:28:26.253Z,20.85
2019-04-16T15:32:39.610Z,20.53
2019-04-16T15:36:50.578Z,20.66
2019-04-16T15:40:54.364Z,20.87
2019-04-16T15:45:02.131Z,19.93
2019-04-16T15:49:07.101Z,20.85
2019-04-16T15:53:16.852Z,20.89
2019-04-16T15:57:23.087Z,21.35
2019-04-16T16:01:29.346Z,21.47
2019-04-16T16:05:36.714Z,21.56
2019-04-16T16:09:41.133Z,21.34
2019-04-16T16:13:42.072Z,21.52
2019-04-16T16:17:44.832Z,21.81
2019-04-16T16:21:46.761Z,23.23
2019-04-16T16:25:48.681Z,22.72
2019-04-16T16:29:50.635Z,22.36
2019-04-16T16:33:52.566Z,23.30
2019-04-16T16:37:54.491Z,23.14
2019-04-16T16:41:56.700Z,23.85
2019-04-16T16:46:03.039Z,24.74
2019-04-16T16:50:07.322Z,24.23
2019-04-16T16:54:11.162Z,24.93
2019-04-16T16:58:32.847Z,25.69
2019-04-16T17:02:37.385Z,26.09
2019-04-16T17:06:39.303Z,25.37
2019-04-16T17:10:42.615Z,26.52
2019-04-16T17:14:45.689Z,26.96
2019-04-16T17:18:47.607Z,27.03
2019-04-16T17:22:49.530Z,27.39
2019-04-16T17:26:51.459Z,27.61
2019-04-16T17:30:53.531Z,28.59
2019-04-16T17:34:55.535Z,28.54
2019-04-16T17:38:57.481Z,29.36
2019-04-16T17:43:12.644Z,28.93
2019-04-16T17:47:31.921Z,29.23
2019-04-16T17:51:24.526Z,29.96
2019-04-16T17:55:28.092Z,30.48
2019-04-16T17:59:34.240Z,30.29
2019-04-16T18:03:38.657Z,31.85
2019-04-16T18:07:57.827Z,32.19
2019-04-16T18:12:13.731Z,32.49
2019-04-16T18:16:16.681Z,33.40
2019-04-16T18:20:18.859Z,33.77
2019-04-16T18:24:23.493Z,33.34
2019-04-16T18:28:25.817Z,33.75
2019-04-16T18:32:38.627Z,34.87
2019-04-16T18:36:55.547Z,35.77
2019-04-16T18:41:08.991Z,36.17
2019-04-16T18:45:22.594Z,37.25
2019-04-16T18:49:26.143Z,38.09
2019-04-16T18:53:28.078Z,38.75
2019-04-16T18:57:30.097Z,39.58
2019-04-16T19:01:33.660Z,40.13
2019-04-16T19:05:35.564Z,40.57
2019-04-16T19:09:37.655Z,40.83
2019-04-16T19:13:39.565Z,41.65
2019-04-16T19:17:41.476Z,41.96
2019-04-16T19:21:43.491Z,42.15
2019-04-16T19:25:45.381Z,42.55
2019-04-16T19:29:47.289Z,43.33
2019-04-16T19:33:49.207Z,43.27
2019-04-16T19:37:51.131Z,43.50
2019-04-16T19:41:57.484Z,44.31
2019-04-16T19:45:56.881Z,44.77
2019-04-16T19:49:58.983Z,45.21
2019-04-16T19:54:01.683Z,45.35
2019-04-16T19:58:03.656Z,45.64
2019-04-16T20:02:05.754Z,46.43
2019-04-16T20:06:07.884Z,47.18
2019-04-16T20:10:10.297Z,47.46
2019-04-16T20:14:12.185Z,47.96
2019-04-16T20:18:14.107Z,48.25
2019-04-16T20:22:16.046Z,48.54
2019-04-16T20:26:17.931Z,49.06
2019-04-16T20:30:24.251Z,49.19
2019-04-16T20:34:24.513Z,49.52
2019-04-16T20:38:29.183Z,50.08
2019-04-16T20:42:30.003Z,50.34
2019-04-16T20:46:31.900Z,51.01
2019-04-16T20:50:33.805Z,51.27
2019-04-16T20:54:36.278Z,52.18
2019-04-16T20:58:38.650Z,52.37
2019-04-16T21:02:40.543Z,52.39
2019-04-16T21:06:42.448Z,52.68
2019-04-16T21:10:44.961Z,53.70
2019-04-16T21:14:46.859Z,53.78
2019-04-16T21:18:48.767Z,53.69
2019-04-16T21:22:50.653Z,54.25
2019-04-16T21:26:52.561Z,54.18
2019-04-16T21:30:56.119Z,54.42
2019-04-16T21:35:00.934Z,54.71
2019-04-16T21:39:10.678Z,54.94
2019-04-16T21:43:13.652Z,54.93
2019-04-16T21:47:15.557Z,55.34
2019-04-16T21:51:19.508Z,56.09
2019-04-16T21:55:21.053Z,56.22
2019-04-16T21:59:22.959Z,56.41
2019-04-16T22:03:26.502Z,57.23
2019-04-16T22:07:28.438Z,57.17
2019-04-16T22:11:30.336Z,57.10
2019-04-16T22:15:32.247Z,57.04
2019-04-16T22:19:34.150Z,57.55
2019-04-16T22:23:36.038Z,57.32
2019-04-16T22:27:39.674Z,57.26
2019-04-16T22:31:41.802Z,57.23
2019-04-16T22:35:44.942Z,57.40
2019-04-16T22:39:51.972Z,57.45
2019-04-16T22:44:04.280Z,57.54
2019-04-16T22:48:06.322Z,57.35
2019-04-16T22:52:08.401Z,57.86
2019-04-16T22:56:10.313Z,57.77
2019-04-16T23:00:14.265Z,57.72
2019-04-16T23:04:17.829Z,57.65
2019-04-16T23:08:19.734Z,58.17
2019-04-16T23:12:24.488Z,58.59
2019-04-16T23:16:25.252Z,58.73
2019-04-16T23:20:29.671Z,58.33
2019-04-16T23:24:32.335Z,59.07
2019-04-16T23:28:34.354Z,59.60
2019-04-16T23:32:37.233Z,60.28
2019-04-16T23:36:39.227Z,60.23
2019-04-16T23:40:43.963Z,60.29
2019-04-16T23:44:54.718Z,60.88
2019-04-16T23:48:58.275Z,61.24
2019-04-16T23:53:04.076Z,60.88
2019-04-16T23:57:07.073Z,60.45
